Time;durP1;ratioP1;P1;durP2;ratioP2;P2;SDS_P1;SDS_P2;PMS_P1;PMS_P2;Temp;Humidity;BMP_temperature;BMP_pressure;BME280_temperature;BME280_humidity;BME280_pressure;Samples;Min_cycle;Max_cycle;Signal;HPM_P1;HPM_P2
2023/10/18 00:01:46;;;;;;;23.77;21.47;;;4.40;99.90;;;;;;4981323;28;20640;-78
2023/10/18 00:04:15;;;;;;;23.40;21.20;;;4.40;99.90;;;;;;4980414;28;20194;-77
2023/10/18 00:06:47;;;;;;;24.53;22.13;;;4.40;99.90;;;;;;4981788;28;20229;-78
2023/10/18 00:12:00;;;;;;;23.70;21.40;;;4.30;99.90;;;;;;4985824;28;20676;-78
2023/10/18 00:14:27;;;;;;;24.80;22.33;;;4.30;99.90;;;;;;4996451;28;20260;-78
2023/10/18 00:16:54;;;;;;;23.80;21.33;;;4.30;99.90;;;;;;4985501;28;20212;-77
2023/10/18 00:19:21;;;;;;;24.27;21.87;;;4.30;99.90;;;;;;4979106;28;20214;-77
2023/10/18 00:21:49;;;;;;;23.83;21.67;;;4.20;99.90;;;;;;4985778;28;20651;-77
2023/10/18 00:24:16;;;;;;;24.47;22.00;;;4.30;99.90;;;;;;4985327;28;20194;-77
2023/10/18 00:26:42;;;;;;;24.20;21.70;;;4.30;99.90;;;;;;4985677;28;20198;-77
2023/10/18 00:29:10;;;;;;;24.27;21.87;;;4.30;99.90;;;;;;4982095;28;20572;-77
2023/10/18 00:31:37;;;;;;;24.43;21.80;;;4.20;99.90;;;;;;4984882;28;20426;-77
2023/10/18 00:34:04;;;;;;;23.73;21.10;;;4.20;99.90;;;;;;4972597;28;20264;-78
2023/10/18 00:36:32;;;;;;;23.60;21.27;;;4.20;99.90;;;;;;4987179;28;20297;-77
2023/10/18 00:39:14;;;;;;;23.97;21.47;;;4.10;99.90;;;;;;4984065;28;20225;-78
2023/10/18 00:41:44;;;;;;;29.03;21.03;;;4.20;99.90;;;;;;4978518;28;20226;-77
2023/10/18 00:44:11;;;;;;;22.37;20.17;;;4.10;99.90;;;;;;4983066;28;20205;-78
2023/10/18 00:46:39;;;;;;;22.73;20.50;;;4.10;99.90;;;;;;4981650;28;20209;-77
2023/10/18 00:49:13;;;;;;;22.63;20.47;;;4.10;99.90;;;;;;4972644;28;20194;-77
2023/10/18 00:51:40;;;;;;;21.97;19.90;;;4.10;99.90;;;;;;4982028;28;20229;-77
2023/10/18 00:54:11;;;;;;;24.00;21.50;;;4.00;99.90;;;;;;4986628;28;20217;-77
2023/10/18 00:56:39;;;;;;;23.63;21.30;;;4.00;99.90;;;;;;4972550;28;20199;-77
2023/10/18 00:59:18;;;;;;;22.83;20.43;;;4.00;99.90;;;;;;4978301;28;20202;-78
2023/10/18 01:01:46;;;;;;;22.97;20.67;;;4.00;99.90;;;;;;4984761;28;20225;-78
2023/10/18 01:04:13;;;;;;;21.83;19.67;;;4.00;99.90;;;;;;4983188;28;20198;-77
2023/10/18 01:06:45;;;;;;;22.50;20.40;;;4.00;99.90;;;;;;4982437;28;20202;-78
2023/10/18 01:09:15;;;;;;;23.37;20.97;;;4.00;99.90;;;;;;4977162;28;20193;-77
2023/10/18 01:11:45;;;;;;;21.93;19.90;;;3.90;99.90;;;;;;4984604;28;20228;-78
2023/10/18 01:14:16;;;;;;;23.07;20.80;;;4.00;99.90;;;;;;4974897;28;20227;-78
2023/10/18 01:16:45;;;;;;;23.60;21.23;;;3.90;99.90;;;;;;4984457;28;20284;-77
2023/10/18 01:19:14;;;;;;;23.07;20.83;;;4.00;99.90;;;;;;4983909;28;20202;-78
2023/10/18 01:21:45;;;;;;;22.93;20.63;;;4.00;99.90;;;;;;4982831;28;20451;-77
2023/10/18 01:24:16;;;;;;;22.20;20.10;;;3.90;99.90;;;;;;4976387;28;20202;-78
2023/10/18 01:26:45;;;;;;;22.17;20.10;;;3.90;99.90;;;;;;4982122;28;20269;-78
2023/10/18 01:29:12;;;;;;;23.37;21.07;;;3.90;99.90;;;;;;4984817;28;20654;-77
2023/10/18 01:31:44;;;;;;;23.27;21.00;;;3.90;99.90;;;;;;4981621;28;20213;-77
2023/10/18 01:34:11;;;;;;;23.23;21.03;;;3.90;99.90;;;;;;4987518;28;20229;-77
2023/10/18 01:36:40;;;;;;;23.70;20.40;;;3.90;99.90;;;;;;4981948;28;20263;-77
2023/10/18 01:39:18;;;;;;;22.20;19.90;;;3.80;99.90;;;;;;4982429;28;20205;-77
2023/10/18 01:41:48;;;;;;;21.43;19.27;;;3.80;99.90;;;;;;4987272;28;20225;-78
2023/10/18 01:44:18;;;;;;;21.67;19.67;;;3.80;99.90;;;;;;4985645;28;20222;-78
2023/10/18 01:46:46;;;;;;;21.90;19.70;;;3.70;99.90;;;;;;4988777;28;20205;-77
2023/10/18 01:49:16;;;;;;;22.53;20.23;;;3.70;99.90;;;;;;4974822;28;20216;-78
2023/10/18 01:51:46;;;;;;;21.93;19.70;;;3.70;99.90;;;;;;4987007;28;20732;-77
2023/10/18 01:54:15;;;;;;;21.73;19.73;;;3.70;99.90;;;;;;4987283;28;20248;-78
2023/10/18 01:56:43;;;;;;;21.33;19.03;;;3.70;99.90;;;;;;4983302;28;20210;-78
2023/10/18 01:59:13;;;;;;;20.77;18.77;;;3.70;99.90;;;;;;4988849;28;20194;-78
2023/10/18 02:01:44;;;;;;;20.87;18.83;;;3.70;99.90;;;;;;4983016;28;20600;-78
2023/10/18 02:04:19;;;;;;;21.30;19.20;;;3.70;99.90;;;;;;4985101;28;20229;-77
2023/10/18 02:06:47;;;;;;;22.83;19.70;;;3.70;99.90;;;;;;4983042;28;20201;-77
2023/10/18 02:09:14;;;;;;;21.80;19.70;;;3.70;99.90;;;;;;4974586;28;20579;-78
2023/10/18 02:11:41;;;;;;;22.80;20.30;;;3.70;99.90;;;;;;4983509;28;20277;-78
2023/10/18 02:14:08;;;;;;;21.87;19.30;;;3.70;99.90;;;;;;4989165;28;20681;-77
2023/10/18 02:16:37;;;;;;;21.73;19.73;;;3.70;99.90;;;;;;4984704;28;20205;-78
2023/10/18 02:19:06;;;;;;;23.07;20.07;;;3.70;99.90;;;;;;4986377;28;20198;-78
2023/10/18 02:21:34;;;;;;;21.23;19.03;;;3.70;99.90;;;;;;4987102;28;20268;-78
2023/10/18 02:24:01;;;;;;;21.13;19.13;;;3.70;99.90;;;;;;4981878;28;20253;-78
2023/10/18 02:26:31;;;;;;;22.80;20.43;;;3.70;99.90;;;;;;4985813;28;20197;-77
2023/10/18 02:28:59;;;;;;;21.07;19.07;;;3.70;99.90;;;;;;4985125;28;20265;-77
2023/10/18 02:31:28;;;;;;;21.87;19.77;;;3.70;99.90;;;;;;4988156;28;20276;-78
2023/10/18 02:33:57;;;;;;;23.30;20.87;;;3.70;99.90;;;;;;4983857;28;20301;-78
2023/10/18 02:36:32;;;;;;;22.50;20.10;;;3.80;99.90;;;;;;4980405;28;20195;-78
2023/10/18 02:38:59;;;;;;;24.77;19.63;;;3.80;99.90;;;;;;4984042;28;20229;-77
2023/10/18 02:41:27;;;;;;;21.47;19.20;;;3.80;99.90;;;;;;4986504;28;20210;-79
2023/10/18 02:43:55;;;;;;;21.33;19.17;;;3.90;99.90;;;;;;4985971;28;20252;-78
2023/10/18 02:46:24;;;;;;;22.87;20.47;;;3.90;99.90;;;;;;4986107;28;20198;-77
2023/10/18 02:48:52;;;;;;;23.10;19.53;;;3.90;99.90;;;;;;4979539;28;20200;-77
2023/10/18 02:51:22;;;;;;;22.87;20.63;;;3.90;99.90;;;;;;4971855;28;20284;-77
2023/10/18 02:53:49;;;;;;;22.50;20.30;;;4.00;99.90;;;;;;4984098;28;20214;-79
2023/10/18 02:56:20;;;;;;;23.60;21.30;;;4.00;99.90;;;;;;4987014;28;20225;-78
2023/10/18 02:58:47;;;;;;;22.70;20.63;;;3.90;99.90;;;;;;4978453;28;20260;-78
2023/10/18 03:01:18;;;;;;;22.10;20.10;;;4.00;99.90;;;;;;4979019;28;20221;-79
2023/10/18 03:03:46;;;;;;;25.40;22.90;;;4.00;99.90;;;;;;4981023;28;20210;-78
2023/10/18 03:06:14;;;;;;;23.77;21.63;;;4.00;99.90;;;;;;4984935;28;20205;-78
2023/10/18 03:08:44;;;;;;;23.23;20.80;;;4.00;99.90;;;;;;4982884;28;20193;-78
2023/10/18 03:11:11;;;;;;;23.30;21.10;;;4.00;99.90;;;;;;4980480;28;20607;-78
2023/10/18 03:13:38;;;;;;;22.87;20.77;;;3.90;99.90;;;;;;4974209;28;20213;-79
2023/10/18 03:16:06;;;;;;;21.77;19.77;;;3.90;99.90;;;;;;4984451;28;20205;-81
2023/10/18 03:18:34;;;;;;;22.07;19.87;;;3.90;99.90;;;;;;4985091;28;20217;-78
2023/10/18 03:21:05;;;;;;;22.53;20.30;;;3.90;99.90;;;;;;4984209;28;20237;-79
2023/10/18 03:23:43;;;;;;;21.83;19.80;;;3.90;99.90;;;;;;4996368;28;20226;-78
2023/10/18 03:26:12;;;;;;;21.93;19.77;;;3.90;99.90;;;;;;4984013;28;20237;-79
2023/10/18 03:28:41;;;;;;;20.80;18.80;;;3.90;99.90;;;;;;4989715;28;20570;-79
2023/10/18 03:31:21;;;;;;;21.73;19.53;;;3.80;99.90;;;;;;4978992;28;20711;-77
2023/10/18 03:33:52;;;;;;;21.40;19.30;;;3.80;99.90;;;;;;4981403;28;20217;-77
2023/10/18 03:36:21;;;;;;;19.83;18.07;;;3.80;99.90;;;;;;4977728;28;20195;-77
2023/10/18 03:38:59;;;;;;;20.50;18.60;;;3.80;99.90;;;;;;4974501;28;20206;-77
2023/10/18 03:41:33;;;;;;;20.07;18.17;;;3.70;99.90;;;;;;4970876;28;20790;-77
2023/10/18 03:44:06;;;;;;;21.20;19.10;;;3.70;99.90;;;;;;4980371;28;20515;-77
2023/10/18 03:46:46;;;;;;;20.43;18.43;;;3.80;99.90;;;;;;4974755;28;20608;-80
2023/10/18 03:49:21;;;;;;;19.37;17.77;;;3.80;99.90;;;;;;4980042;28;20252;-78
2023/10/18 03:51:49;;;;;;;20.93;19.03;;;3.80;99.90;;;;;;4985721;28;20289;-79
2023/10/18 03:54:16;;;;;;;20.70;18.70;;;3.80;99.90;;;;;;4975781;28;20684;-77
2023/10/18 03:56:51;;;;;;;21.53;19.53;;;3.80;99.90;;;;;;4970662;28;20207;-77
2023/10/18 03:59:20;;;;;;;21.33;19.43;;;3.80;99.90;;;;;;4969927;28;20228;-77
2023/10/18 04:02:04;;;;;;;19.93;18.13;;;3.80;99.90;;;;;;4965469;28;20221;-77
2023/10/18 04:04:35;;;;;;;21.30;19.40;;;3.70;99.90;;;;;;4984153;28;20690;-76
2023/10/18 04:07:13;;;;;;;20.80;19.00;;;3.80;99.90;;;;;;4975579;28;20202;-77
2023/10/18 04:09:43;;;;;;;21.40;19.50;;;3.80;99.90;;;;;;4976325;28;20572;-77
2023/10/18 04:12:16;;;;;;;19.70;17.90;;;3.80;99.90;;;;;;4975983;28;20252;-76
2023/10/18 04:14:52;;;;;;;21.60;19.60;;;3.80;99.90;;;;;;4983497;28;20220;-77
2023/10/18 04:17:36;;;;;;;21.33;19.27;;;3.80;99.90;;;;;;4980127;28;20198;-76
2023/10/18 04:20:08;;;;;;;22.13;20.07;;;3.80;99.90;;;;;;4969953;28;20250;-77
2023/10/18 04:22:36;;;;;;;22.13;20.13;;;3.80;99.90;;;;;;4978435;28;20677;-76
2023/10/18 04:25:08;;;;;;;20.40;18.50;;;3.70;99.90;;;;;;4974002;28;20206;-76
2023/10/18 04:27:37;;;;;;;20.17;18.47;;;3.70;99.90;;;;;;4966181;28;20273;-77
2023/10/18 04:30:07;;;;;;;20.30;18.57;;;3.70;99.90;;;;;;4978228;28;20802;-77
2023/10/18 04:32:35;;;;;;;19.80;18.17;;;3.70;99.90;;;;;;4975439;28;20207;-76
2023/10/18 04:35:06;;;;;;;20.30;18.40;;;3.70;99.90;;;;;;4976706;28;20268;-77
2023/10/18 04:37:33;;;;;;;20.20;18.40;;;3.70;99.90;;;;;;4976881;28;20210;-76
2023/10/18 04:40:00;;;;;;;20.87;18.97;;;3.70;99.90;;;;;;4972453;28;20245;-77
2023/10/18 04:42:26;;;;;;;18.70;17.10;;;3.70;99.90;;;;;;4973398;28;20216;-77
2023/10/18 04:44:56;;;;;;;19.77;17.83;;;3.70;99.90;;;;;;4975742;28;20264;-77
2023/10/18 04:47:32;;;;;;;19.13;17.43;;;3.60;99.90;;;;;;4978452;28;20681;-78
2023/10/18 04:50:02;;;;;;;18.57;17.07;;;3.60;99.90;;;;;;4973004;28;20282;-77
2023/10/18 04:52:42;;;;;;;20.43;18.47;;;3.50;99.90;;;;;;4974796;28;20553;-77
2023/10/18 04:55:12;;;;;;;19.60;17.90;;;3.60;99.90;;;;;;4976690;28;20221;-77
2023/10/18 04:57:40;;;;;;;20.80;19.00;;;3.50;99.90;;;;;;4974961;28;20236;-77
2023/10/18 05:00:25;;;;;;;19.83;18.17;;;3.50;99.90;;;;;;4973564;28;20316;-77
2023/10/18 05:02:53;;;;;;;20.27;18.43;;;3.40;99.90;;;;;;4976457;28;20189;-77
2023/10/18 05:05:19;;;;;;;18.90;17.37;;;3.40;99.90;;;;;;4974494;28;20212;-77
2023/10/18 05:07:48;;;;;;;20.97;19.17;;;3.40;99.90;;;;;;4977951;28;20545;-77
2023/10/18 05:10:16;;;;;;;19.73;18.17;;;3.50;99.90;;;;;;4971088;28;20230;-77
2023/10/18 05:13:01;;;;;;;19.57;17.87;;;3.40;99.90;;;;;;4976430;28;20198;-77
2023/10/18 05:15:30;;;;;;;21.60;19.33;;;3.40;99.90;;;;;;4976770;28;20215;-77
2023/10/18 05:18:04;;;;;;;21.33;19.40;;;3.40;99.90;;;;;;4978078;28;20206;-77
2023/10/18 05:20:46;;;;;;;20.07;18.47;;;3.40;99.90;;;;;;4975599;28;20236;-77
2023/10/18 05:23:21;;;;;;;20.23;18.53;;;3.30;99.90;;;;;;4970101;28;20591;-77
2023/10/18 05:25:48;;;;;;;19.03;17.53;;;3.40;99.90;;;;;;4977376;28;20201;-77
2023/10/18 05:28:24;;;;;;;18.70;17.20;;;3.50;99.90;;;;;;4976425;28;20648;-77
2023/10/18 05:33:55;;;;;;;19.60;17.83;;;3.40;99.90;;;;;;4972793;28;20280;-77
2023/10/18 05:36:34;;;;;;;20.47;18.77;;;3.50;99.90;;;;;;4972421;28;20283;-77
2023/10/18 05:39:28;;;;;;;20.53;18.83;;;3.50;99.90;;;;;;4974940;28;20248;-77
2023/10/18 05:42:03;;;;;;;21.63;19.63;;;3.50;99.90;;;;;;4967184;28;20261;-77
2023/10/18 05:44:30;;;;;;;23.17;21.10;;;3.50;99.90;;;;;;4971309;28;20197;-77
2023/10/18 05:46:59;;;;;;;22.73;20.70;;;3.60;99.90;;;;;;4972705;28;20204;-77
2023/10/18 05:49:28;;;;;;;22.43;20.43;;;3.60;99.90;;;;;;4971821;28;20249;-77
2023/10/18 05:51:58;;;;;;;22.40;20.40;;;3.60;99.90;;;;;;4973228;28;20232;-77
2023/10/18 05:54:28;;;;;;;22.33;20.53;;;3.60;99.90;;;;;;4977201;28;20771;-78
2023/10/18 05:56:56;;;;;;;20.03;18.43;;;3.70;99.90;;;;;;4972847;28;20206;-77
2023/10/18 05:59:31;;;;;;;21.40;19.60;;;3.70;99.90;;;;;;4969013;28;20281;-77
2023/10/18 06:02:02;;;;;;;19.30;17.60;;;3.80;99.90;;;;;;4974364;28;20193;-78
2023/10/18 06:04:37;;;;;;;20.77;19.07;;;3.80;99.90;;;;;;4972476;28;20198;-77
2023/10/18 06:07:09;;;;;;;19.90;18.27;;;3.90;99.90;;;;;;4967788;28;20207;-77
2023/10/18 06:09:44;;;;;;;19.30;17.80;;;4.00;99.90;;;;;;4974419;28;20696;-77
2023/10/18 06:12:14;;;;;;;19.93;18.23;;;4.00;99.90;;;;;;4979257;28;20564;-77
2023/10/18 06:14:44;;;;;;;20.20;18.20;;;4.00;99.90;;;;;;4979229;28;20214;-77
2023/10/18 06:17:19;;;;;;;19.43;17.83;;;4.00;99.90;;;;;;4982657;28;20260;-77
2023/10/18 06:19:47;;;;;;;19.10;17.50;;;4.10;99.90;;;;;;4971072;28;20280;-77
2023/10/18 06:22:17;;;;;;;20.07;18.37;;;4.10;99.90;;;;;;4974617;28;20202;-77
2023/10/18 06:24:48;;;;;;;19.30;17.80;;;4.20;99.90;;;;;;4977921;28;20237;-77
2023/10/18 06:27:16;;;;;;;19.33;17.63;;;4.30;99.90;;;;;;4977587;28;20206;-77
2023/10/18 06:29:45;;;;;;;18.67;17.10;;;4.40;99.90;;;;;;4967784;28;20229;-77
2023/10/18 06:32:14;;;;;;;19.43;17.40;;;4.50;99.90;;;;;;4975108;28;20202;-77
2023/10/18 06:34:43;;;;;;;19.27;17.53;;;4.60;99.90;;;;;;4970962;28;20282;-77
2023/10/18 06:37:20;;;;;;;19.53;17.83;;;4.70;99.90;;;;;;4977114;28;20233;-77
2023/10/18 06:39:49;;;;;;;19.47;17.53;;;4.80;99.90;;;;;;4974334;28;20201;-77
2023/10/18 06:42:17;;;;;;;20.93;18.83;;;4.80;99.90;;;;;;4982015;28;20228;-77
2023/10/18 06:44:44;;;;;;;18.77;17.17;;;4.90;99.90;;;;;;4977571;28;20293;-77
2023/10/18 06:47:14;;;;;;;19.97;17.97;;;4.90;99.90;;;;;;4974033;28;20201;-77
2023/10/18 06:49:43;;;;;;;18.43;16.93;;;4.80;99.90;;;;;;4973947;28;20277;-77
2023/10/18 06:52:13;;;;;;;19.43;17.63;;;4.90;99.90;;;;;;4977306;28;20202;-77
2023/10/18 06:54:41;;;;;;;19.00;17.40;;;4.90;99.90;;;;;;4987522;28;20233;-78
2023/10/18 06:57:16;;;;;;;17.77;16.27;;;4.90;99.90;;;;;;4983925;28;20205;-77
2023/10/18 06:59:47;;;;;;;19.03;17.43;;;4.90;99.90;;;;;;4980703;28;20203;-78
2023/10/18 07:02:16;;;;;;;18.23;16.73;;;5.00;99.90;;;;;;4979035;28;20673;-77
2023/10/18 07:04:50;;;;;;;18.10;16.37;;;5.00;99.90;;;;;;4980567;28;20293;-77
2023/10/18 07:07:20;;;;;;;18.00;16.30;;;5.10;99.90;;;;;;4976457;28;20205;-78
2023/10/18 07:09:52;;;;;;;19.53;17.77;;;5.10;99.90;;;;;;4979032;28;20561;-77
2023/10/18 07:12:19;;;;;;;19.13;17.43;;;5.20;99.90;;;;;;4980697;28;20565;-77
2023/10/18 07:14:47;;;;;;;19.07;17.47;;;5.30;99.90;;;;;;4977458;28;20321;-79
2023/10/18 07:17:15;;;;;;;19.17;17.43;;;5.40;99.90;;;;;;4975548;28;20201;-79
2023/10/18 07:19:48;;;;;;;18.20;16.70;;;5.50;99.90;;;;;;4980419;28;20195;-77
2023/10/18 07:22:19;;;;;;;18.60;17.00;;;5.60;99.90;;;;;;4982328;28;20265;-78
2023/10/18 07:24:47;;;;;;;18.27;16.67;;;5.70;99.90;;;;;;4982396;28;20202;-77
2023/10/18 07:27:17;;;;;;;19.10;17.33;;;5.90;99.90;;;;;;4976015;28;20262;-77
2023/10/18 07:29:48;;;;;;;18.27;16.67;;;6.10;99.90;;;;;;4967424;28;20199;-79
2023/10/18 07:32:20;;;;;;;19.13;17.43;;;6.20;99.90;;;;;;4971924;28;20210;-80
2023/10/18 07:34:48;;;;;;;20.37;18.67;;;6.30;99.90;;;;;;4977944;28;20647;-79
2023/10/18 07:37:19;;;;;;;18.40;16.70;;;6.40;99.90;;;;;;4979034;28;20209;-79
2023/10/18 07:39:48;;;;;;;17.45;15.95;;;6.30;99.90;;;;;;4978200;28;20094;-80
2023/10/18 07:42:18;;;;;;;20.42;18.73;;;6.50;99.90;;;;;;4979265;28;20957;-79
2023/10/18 07:44:46;;;;;;;18.30;16.70;;;6.70;99.90;;;;;;4980213;28;20244;-77
2023/10/18 07:47:18;;;;;;;17.30;15.90;;;6.90;99.90;;;;;;4983878;28;20212;-77
2023/10/18 07:49:46;;;;;;;18.43;16.93;;;7.20;99.90;;;;;;4969764;28;20236;-77
2023/10/18 07:52:14;;;;;;;17.60;16.10;;;7.40;99.90;;;;;;4979154;28;20208;-77
2023/10/18 07:54:40;;;;;;;18.20;16.70;;;7.60;99.90;;;;;;4979064;28;20211;-77
2023/10/18 07:57:15;;;;;;;19.53;17.90;;;7.80;99.90;;;;;;4982423;28;20201;-78
2023/10/18 07:59:46;;;;;;;20.30;18.70;;;8.00;99.90;;;;;;4980988;28;20204;-77
2023/10/18 08:02:19;;;;;;;20.53;18.87;;;8.40;99.90;;;;;;4975910;28;20418;-78
2023/10/18 08:04:48;;;;;;;18.07;16.27;;;8.50;99.90;;;;;;4973439;28;20235;-78
2023/10/18 08:07:19;;;;;;;11.43;10.23;;;8.80;99.90;;;;;;4982973;28;20200;-77
2023/10/18 08:09:48;;;;;;;12.87;10.70;;;9.00;99.90;;;;;;4975909;28;20262;-78
2023/10/18 08:12:28;;;;;;;12.97;11.60;;;9.10;99.90;;;;;;4976626;28;20237;-78
2023/10/18 08:14:55;;;;;;;12.33;10.70;;;9.30;99.90;;;;;;4980706;28;20205;-78
2023/10/18 08:17:42;;;;;;;13.90;12.30;;;9.30;99.90;;;;;;4976445;28;20217;-78
2023/10/18 08:20:40;;;;;;;12.73;11.43;;;9.20;99.90;;;;;;4980725;28;20678;-78
2023/10/18 08:23:19;;;;;;;14.93;12.10;;;9.20;99.90;;;;;;4974638;28;20204;-78
2023/10/18 08:25:50;;;;;;;13.43;11.93;;;9.20;99.90;;;;;;4976093;28;20280;-78
2023/10/18 08:28:17;;;;;;;13.47;12.07;;;9.30;99.90;;;;;;4978196;28;20277;-78
2023/10/18 08:31:03;;;;;;;12.67;11.17;;;9.30;99.90;;;;;;4972375;28;20233;-78
2023/10/18 08:33:30;;;;;;;16.40;14.97;;;9.40;99.90;;;;;;4979135;28;20736;-78
2023/10/18 08:36:06;;;;;;;15.40;13.90;;;9.50;99.90;;;;;;4976815;28;20703;-78
2023/10/18 08:38:33;;;;;;;13.80;11.43;;;9.90;99.90;;;;;;4973868;28;20245;-78
2023/10/18 08:41:11;;;;;;;13.43;12.00;;;10.30;99.90;;;;;;4978413;28;20588;-78
2023/10/18 08:43:44;;;;;;;13.23;11.83;;;10.60;99.90;;;;;;4979711;28;20222;-78
2023/10/18 08:46:11;;;;;;;12.95;11.75;;;10.80;99.90;;;;;;4973220;28;20815;-78
2023/10/18 08:48:42;;;;;;;18.67;16.77;;;11.00;99.90;;;;;;4977224;28;20600;-78
2023/10/18 08:51:10;;;;;;;17.37;15.77;;;11.20;99.90;;;;;;4978404;28;20230;-79
2023/10/18 08:53:41;;;;;;;16.27;14.77;;;11.10;99.90;;;;;;4975470;28;20204;-78
2023/10/18 08:56:08;;;;;;;16.63;15.25;;;11.10;99.90;;;;;;4978059;28;20461;-78
2023/10/18 08:58:39;;;;;;;16.30;14.73;;;11.10;99.90;;;;;;4981504;28;20258;-78
2023/10/18 09:01:09;;;;;;;17.13;15.70;;;11.10;99.90;;;;;;4975436;28;20224;-80
2023/10/18 09:03:35;;;;;;;17.83;16.13;;;11.10;99.90;;;;;;4973222;28;20248;-78
2023/10/18 09:06:05;;;;;;;15.80;14.30;;;11.10;99.90;;;;;;4978207;28;20258;-78
2023/10/18 09:08:41;;;;;;;17.87;16.27;;;11.10;99.90;;;;;;4973528;28;20209;-78
2023/10/18 09:11:20;;;;;;;16.27;14.87;;;11.10;99.90;;;;;;4980674;28;20871;-79
2023/10/18 09:14:07;;;;;;;12.50;9.83;;;11.00;99.90;;;;;;4977465;28;20215;-80
2023/10/18 09:16:37;;;;;;;13.07;11.63;;;10.90;99.90;;;;;;4977750;28;20282;-78
2023/10/18 09:19:04;;;;;;;12.00;10.70;;;10.80;99.90;;;;;;4978940;28;20197;-79
2023/10/18 09:21:36;;;;;;;12.80;11.43;;;10.80;99.90;;;;;;4979748;28;20286;-78
2023/10/18 09:24:06;;;;;;;11.20;10.10;;;10.90;99.90;;;;;;4975104;28;20569;-80
2023/10/18 09:26:40;;;;;;;12.00;10.80;;;11.00;99.90;;;;;;4973231;28;20235;-81
2023/10/18 09:29:08;;;;;;;15.37;13.83;;;11.20;99.90;;;;;;4976187;28;20258;-81
2023/10/18 09:31:36;;;;;;;15.10;13.70;;;11.10;99.90;;;;;;4972986;28;20764;-82
2023/10/18 09:34:08;;;;;;;17.13;15.63;;;11.20;99.90;;;;;;4976761;28;20354;-80
2023/10/18 09:36:39;;;;;;;15.57;13.83;;;11.20;99.90;;;;;;4973732;28;20231;-82
2023/10/18 09:39:10;;;;;;;14.75;13.55;;;11.20;99.90;;;;;;4976400;28;20440;-82
2023/10/18 09:41:39;;;;;;;12.23;10.37;;;11.20;99.90;;;;;;4977598;28;20228;-82
2023/10/18 09:44:07;;;;;;;17.27;15.60;;;11.40;99.90;;;;;;4974273;28;20272;-82
2023/10/18 09:46:35;;;;;;;17.07;15.40;;;11.50;99.90;;;;;;4974382;28;20656;-80
2023/10/18 09:49:06;;;;;;;19.33;17.60;;;11.40;99.90;;;;;;4980702;28;20200;-79
2023/10/18 09:51:34;;;;;;;16.77;15.37;;;11.50;99.90;;;;;;4977653;28;20224;-80
2023/10/18 09:54:06;;;;;;;16.83;15.35;;;11.70;99.90;;;;;;4983034;28;20438;-80
2023/10/18 09:56:37;;;;;;;18.23;16.53;;;11.90;99.90;;;;;;4978619;28;20711;-81
2023/10/18 09:59:08;;;;;;;14.40;12.60;;;11.90;99.90;;;;;;4982146;28;20469;-79
2023/10/18 10:04:18;;;;;;;14.00;12.60;;;12.10;99.90;;;;;;4980227;28;20292;-80
2023/10/18 10:06:53;;;;;;;12.87;11.57;;;12.20;99.90;;;;;;4974691;28;20264;-80
2023/10/18 10:09:28;;;;;;;14.83;13.40;;;12.10;99.90;;;;;;4983787;28;20671;-80
2023/10/18 10:11:58;;;;;;;16.50;15.00;;;12.10;99.90;;;;;;4981956;28;20217;-80
2023/10/18 10:14:29;;;;;;;13.57;12.30;;;12.10;99.90;;;;;;4978344;28;20265;-80
2023/10/18 10:17:00;;;;;;;16.07;14.67;;;12.20;99.90;;;;;;4977458;28;20222;-80
2023/10/18 10:19:30;;;;;;;12.67;11.37;;;12.30;99.90;;;;;;4977558;28;20198;-80
2023/10/18 10:22:04;;;;;;;12.87;11.63;;;12.20;99.90;;;;;;4974351;28;20284;-80
2023/10/18 10:24:35;;;;;;;13.37;12.03;;;12.30;99.90;;;;;;4981674;28;20220;-80
2023/10/18 10:27:28;;;;;;;10.37;9.37;;;12.30;99.90;;;;;;4983372;28;20198;-81
2023/10/18 10:29:57;;;;;;;13.80;12.17;;;12.50;99.90;;;;;;4982404;28;20221;-80
2023/10/18 10:32:26;;;;;;;14.10;12.77;;;12.50;99.90;;;;;;4978105;28;20278;-80
2023/10/18 10:35:15;;;;;;;14.77;13.03;;;12.30;99.90;;;;;;4979456;28;20206;-80
2023/10/18 10:37:47;;;;;;;14.07;12.77;;;12.20;99.90;;;;;;4985399;28;20317;-80
2023/10/18 10:40:35;;;;;;;15.97;14.53;;;12.20;99.90;;;;;;4975434;28;20254;-80
2023/10/18 10:43:08;;;;;;;12.67;11.43;;;12.20;99.90;;;;;;4971118;28;20204;-81
2023/10/18 10:45:38;;;;;;;14.13;12.83;;;12.20;99.90;;;;;;4977423;28;20711;-80
2023/10/18 10:48:31;;;;;;;12.87;11.67;;;12.10;99.90;;;;;;4981684;28;20399;-80
2023/10/18 10:51:06;;;;;;;11.40;10.27;;;12.10;99.90;;;;;;4981434;28;20217;-80
2023/10/18 10:53:35;;;;;;;11.63;10.43;;;12.30;99.90;;;;;;4983674;28;20215;-80
2023/10/18 10:56:16;;;;;;;11.90;10.60;;;12.50;99.90;;;;;;4975780;28;20222;-80
2023/10/18 10:58:54;;;;;;;15.47;14.00;;;12.60;99.90;;;;;;4983276;28;20467;-80
2023/10/18 11:01:39;;;;;;;11.87;10.73;;;12.90;99.90;;;;;;4975354;28;20280;-80
2023/10/18 11:04:11;;;;;;;13.27;11.80;;;13.00;99.90;;;;;;4976584;28;20199;-80
2023/10/18 11:06:43;;;;;;;15.90;14.40;;;13.00;99.90;;;;;;4980540;28;20202;-80
2023/10/18 11:09:15;;;;;;;13.87;12.67;;;13.00;99.90;;;;;;4975398;28;20203;-80
2023/10/18 11:11:45;;;;;;;16.23;14.83;;;13.10;99.90;;;;;;4977780;28;20272;-80
2023/10/18 11:14:18;;;;;;;15.27;13.93;;;12.90;99.90;;;;;;4981008;28;20688;-80
2023/10/18 11:16:49;;;;;;;15.03;13.57;;;12.90;99.90;;;;;;4975427;28;20241;-80
2023/10/18 11:19:15;;;;;;;13.10;11.90;;;12.80;99.90;;;;;;4979028;28;20229;-80
2023/10/18 11:21:43;;;;;;;13.97;12.57;;;12.70;99.90;;;;;;4980080;28;20225;-80
2023/10/18 11:24:13;;;;;;;14.30;12.87;;;12.70;99.90;;;;;;4977061;28;20198;-81
2023/10/18 11:26:40;;;;;;;13.90;12.50;;;12.70;99.90;;;;;;4977586;28;20199;-80
2023/10/18 11:29:08;;;;;;;13.70;12.27;;;12.80;99.90;;;;;;4979554;28;20309;-78
2023/10/18 11:31:41;;;;;;;13.90;12.60;;;12.90;99.90;;;;;;4980160;28;20233;-78
2023/10/18 11:34:14;;;;;;;14.57;13.03;;;13.00;99.90;;;;;;4976645;28;20224;-78
2023/10/18 11:36:43;;;;;;;14.60;13.30;;;13.10;99.90;;;;;;4974708;28;20288;-78
2023/10/18 11:39:21;;;;;;;14.53;13.00;;;13.10;99.90;;;;;;4975602;28;20352;-79
2023/10/18 11:41:56;;;;;;;14.53;13.23;;;13.30;99.90;;;;;;4982914;28;20707;-78
2023/10/18 11:44:30;;;;;;;13.20;12.07;;;13.30;99.90;;;;;;4971189;28;20206;-79
2023/10/18 11:47:08;;;;;;;11.90;10.80;;;13.30;99.90;;;;;;4973204;28;20291;-78
2023/10/18 11:49:36;;;;;;;11.50;10.37;;;13.40;99.90;;;;;;4972418;28;20252;-78
2023/10/18 11:52:04;;;;;;;14.07;12.67;;;13.50;99.90;;;;;;4980144;28;20198;-78
2023/10/18 11:54:32;;;;;;;11.63;10.63;;;13.40;99.90;;;;;;4981670;28;20244;-79
2023/10/18 11:57:00;;;;;;;10.43;9.43;;;13.40;99.90;;;;;;4975097;28;20214;-77
2023/10/18 11:59:28;;;;;;;9.23;8.33;;;13.40;99.90;;;;;;4978458;28;20194;-77
2023/10/18 12:01:59;;;;;;;11.63;9.27;;;13.50;99.90;;;;;;4974189;28;20222;-77
2023/10/18 12:04:37;;;;;;;8.97;8.10;;;13.50;99.90;;;;;;4975564;28;20197;-77
2023/10/18 12:07:08;;;;;;;10.77;9.77;;;13.60;99.90;;;;;;4981095;28;20192;-77
2023/10/18 12:09:42;;;;;;;9.70;8.80;;;13.70;99.90;;;;;;4980412;28;20211;-77
2023/10/18 12:12:12;;;;;;;14.27;13.17;;;13.70;99.90;;;;;;4976669;28;20234;-77
2023/10/18 12:14:41;;;;;;;11.63;10.63;;;13.70;99.90;;;;;;4978675;28;20206;-77
2023/10/18 12:17:09;;;;;;;10.50;9.70;;;13.70;99.90;;;;;;4985912;28;20234;-80
2023/10/18 12:19:37;;;;;;;11.77;10.73;;;13.70;99.90;;;;;;4976497;28;20205;-78
2023/10/18 12:22:04;;;;;;;10.43;9.50;;;13.70;99.90;;;;;;4975410;28;20241;-78
2023/10/18 12:24:41;;;;;;;10.20;9.20;;;13.80;99.90;;;;;;4981541;28;20208;-77
2023/10/18 12:27:18;;;;;;;11.17;10.07;;;13.80;99.90;;;;;;4980586;28;20197;-77
2023/10/18 12:29:45;;;;;;;12.33;11.07;;;13.70;99.90;;;;;;4981256;28;20208;-78
2023/10/18 12:32:23;;;;;;;11.77;10.87;;;13.80;99.90;;;;;;4976037;28;20195;-77
2023/10/18 12:34:56;;;;;;;10.00;9.10;;;13.80;99.90;;;;;;4972799;28;20194;-78
2023/10/18 12:37:24;;;;;;;11.37;10.47;;;13.90;99.90;;;;;;4979466;28;20217;-77
2023/10/18 12:39:51;;;;;;;11.73;10.83;;;14.00;99.90;;;;;;4975619;28;20538;-77
2023/10/18 12:42:21;;;;;;;11.13;10.17;;;14.10;99.90;;;;;;4978870;28;20559;-79
2023/10/18 12:44:48;;;;;;;11.60;10.70;;;14.20;99.90;;;;;;4983109;28;20210;-78
2023/10/18 12:47:19;;;;;;;8.27;7.47;;;14.20;99.90;;;;;;4975800;28;20194;-78
2023/10/18 12:49:50;;;;;;;7.57;6.80;;;14.40;99.90;;;;;;4979144;28;20201;-77
2023/10/18 12:55:29;;;;;;;10.00;9.20;;;14.40;99.90;;;;;;4960557;28;20206;-78
2023/10/18 12:57:54;;;;;;;5.97;5.10;;;14.30;99.90;;;;;;4982064;28;20261;-77
2023/10/18 13:00:23;;;;;;;6.63;5.27;;;14.20;99.90;;;;;;4974140;28;20218;-77
2023/10/18 13:03:04;;;;;;;7.57;6.87;;;14.20;99.90;;;;;;4970546;28;20223;-77
2023/10/18 13:05:41;;;;;;;9.83;8.97;;;14.10;99.90;;;;;;4980329;28;20197;-77